createdAt,value
2023-03-29T00:01:35.092Z,99.80
2023-03-29T00:04:08.195Z,99.80
2023-03-29T00:06:39.536Z,99.70
2023-03-29T00:09:13.311Z,99.60
2023-03-29T00:11:43.935Z,99.60
2023-03-29T00:14:14.961Z,99.50
2023-03-29T00:16:46.879Z,99.50
2023-03-29T00:19:17.492Z,99.50
2023-03-29T00:21:48.309Z,99.90
2023-03-29T00:24:18.707Z,99.60
2023-03-29T00:26:49.265Z,99.60
2023-03-29T00:29:19.633Z,99.70
2023-03-29T00:31:55.563Z,99.90
2023-03-29T00:34:28.031Z,99.90
2023-03-29T00:36:59.702Z,99.90
2023-03-29T00:39:30.199Z,99.90
2023-03-29T00:42:00.490Z,99.20
2023-03-29T00:44:59.151Z,98.50
2023-03-29T00:47:51.072Z,98.00
2023-03-29T00:50:33.577Z,97.40
2023-03-29T00:53:19.885Z,96.90
2023-03-29T00:56:13.210Z,97.30
2023-03-29T00:59:02.698Z,96.60
2023-03-29T01:02:15.024Z,96.00
2023-03-29T01:04:50.648Z,96.00
2023-03-29T01:07:32.865Z,95.30
2023-03-29T01:10:17.405Z,95.00
2023-03-29T01:12:58.397Z,93.20
2023-03-29T01:15:33.368Z,93.10
2023-03-29T01:18:04.256Z,93.00
2023-03-29T01:20:59.201Z,91.60
2023-03-29T01:23:48.055Z,92.20
2023-03-29T01:26:34.906Z,91.70
2023-03-29T01:29:25.672Z,91.90
2023-03-29T01:32:03.824Z,91.90
2023-03-29T01:35:06.666Z,92.20
2023-03-29T01:37:45.495Z,91.70
2023-03-29T01:40:18.302Z,91.90
2023-03-29T01:43:21.946Z,92.40
2023-03-29T01:46:22.947Z,91.40
2023-03-29T01:49:18.344Z,92.10
2023-03-29T01:52:00.641Z,92.50
2023-03-29T01:54:56.984Z,92.60
2023-03-29T01:57:29.250Z,93.30
2023-03-29T02:00:01.832Z,93.20
2023-03-29T02:02:33.687Z,93.20
2023-03-29T02:05:06.205Z,91.60
2023-03-29T02:07:40.195Z,90.90
2023-03-29T02:10:14.273Z,90.80
2023-03-29T02:12:54.861Z,89.80
2023-03-29T02:15:30.633Z,90.20
2023-03-29T02:18:09.418Z,90.50
2023-03-29T02:20:46.045Z,90.40
2023-03-29T02:23:42.782Z,91.10
2023-03-29T02:26:14.218Z,90.60
2023-03-29T02:28:45.866Z,90.70
2023-03-29T02:31:47.754Z,91.50
2023-03-29T02:34:59.412Z,91.60
2023-03-29T02:37:32.928Z,89.70
2023-03-29T02:40:14.609Z,90.20
2023-03-29T02:42:47.838Z,90.40
2023-03-29T02:45:21.297Z,90.20
2023-03-29T02:48:02.060Z,85.50
2023-03-29T02:50:39.191Z,87.10
2023-03-29T02:53:22.654Z,85.40
2023-03-29T02:55:57.033Z,86.00
2023-03-29T02:58:28.765Z,84.20
2023-03-29T03:01:02.420Z,86.20
2023-03-29T03:03:35.888Z,86.60
2023-03-29T03:06:07.901Z,84.90
2023-03-29T03:08:39.631Z,83.50
2023-03-29T03:11:12.818Z,81.10
2023-03-29T03:13:43.612Z,82.20
2023-03-29T03:16:16.566Z,82.10
2023-03-29T03:18:48.153Z,81.40
2023-03-29T03:21:19.799Z,81.10
2023-03-29T03:23:51.429Z,81.60
2023-03-29T03:26:22.388Z,80.40
2023-03-29T03:28:53.362Z,80.80
2023-03-29T03:31:24.631Z,80.60
2023-03-29T03:33:56.521Z,78.20
2023-03-29T03:36:28.396Z,76.40
2023-03-29T03:38:59.799Z,76.70
2023-03-29T03:41:30.676Z,75.80
2023-03-29T03:44:02.713Z,77.10
2023-03-29T03:46:34.684Z,77.00
2023-03-29T03:49:06.670Z,77.20
2023-03-29T03:51:37.996Z,78.90
2023-03-29T03:54:09.155Z,79.80
2023-03-29T03:56:42.818Z,82.20
2023-03-29T03:59:13.579Z,83.90
2023-03-29T04:01:47.437Z,84.40
2023-03-29T04:04:19.692Z,84.50
2023-03-29T04:06:50.534Z,87.10
2023-03-29T04:09:23.194Z,87.70
2023-03-29T04:11:56.061Z,87.80
2023-03-29T04:14:28.097Z,87.80
2023-03-29T04:17:00.014Z,87.90
2023-03-29T04:19:32.492Z,85.70
2023-03-29T04:22:03.313Z,85.10
2023-03-29T04:24:34.005Z,85.40
2023-03-29T04:27:04.718Z,86.30
2023-03-29T04:29:36.967Z,85.40
2023-03-29T04:32:07.958Z,85.00
2023-03-29T04:34:39.054Z,85.40
2023-03-29T04:37:12.534Z,83.70
2023-03-29T04:39:43.228Z,84.10
2023-03-29T04:42:14.542Z,83.70
2023-03-29T04:44:45.788Z,82.80
2023-03-29T04:47:25.187Z,82.60
2023-03-29T04:49:56.149Z,83.20
2023-03-29T04:52:28.031Z,82.50
2023-03-29T04:55:04.036Z,83.50
2023-03-29T04:57:35.716Z,80.60
2023-03-29T05:00:17.491Z,80.30
2023-03-29T05:02:49.511Z,78.50
2023-03-29T05:05:20.555Z,79.20
2023-03-29T05:07:52.741Z,81.70
2023-03-29T05:10:23.707Z,81.10
2023-03-29T05:12:56.050Z,79.60
2023-03-29T05:15:27.888Z,80.90
2023-03-29T05:17:58.600Z,82.80
2023-03-29T05:20:29.397Z,81.60
2023-03-29T05:23:01.525Z,80.50
2023-03-29T05:25:32.632Z,82.30
2023-03-29T05:28:03.620Z,79.60
2023-03-29T05:30:34.309Z,81.60
2023-03-29T05:33:08.096Z,80.50
2023-03-29T05:35:39.471Z,80.30
2023-03-29T05:38:12.108Z,80.10
2023-03-29T05:40:44.531Z,82.00
2023-03-29T05:43:18.408Z,81.40
2023-03-29T05:45:50.426Z,81.30
2023-03-29T05:48:21.633Z,82.20
2023-03-29T05:50:54.360Z,81.20
2023-03-29T05:53:27.538Z,79.20
2023-03-29T05:55:58.603Z,80.10
2023-03-29T05:58:32.187Z,78.20
2023-03-29T06:01:04.911Z,78.80
2023-03-29T06:03:36.666Z,77.70
2023-03-29T06:06:08.201Z,76.80
2023-03-29T06:08:41.943Z,77.40
2023-03-29T06:11:17.157Z,75.80
2023-03-29T06:13:48.098Z,75.00
2023-03-29T06:16:19.293Z,76.50
2023-03-29T06:18:50.717Z,77.30
2023-03-29T06:21:21.441Z,78.60
2023-03-29T06:24:01.133Z,77.90
2023-03-29T06:26:35.512Z,77.90
2023-03-29T06:29:06.496Z,77.20
2023-03-29T06:31:38.244Z,78.00
2023-03-29T06:34:09.988Z,77.80
2023-03-29T06:36:42.153Z,76.80
2023-03-29T06:39:17.477Z,77.90
2023-03-29T06:41:49.365Z,76.20
2023-03-29T06:44:20.385Z,75.70
2023-03-29T06:46:54.053Z,77.00
2023-03-29T06:49:25.966Z,78.50
2023-03-29T06:52:01.490Z,79.50
2023-03-29T06:54:33.164Z,76.00
2023-03-29T06:57:04.299Z,75.60
2023-03-29T06:59:36.663Z,75.80
2023-03-29T07:02:07.459Z,76.50
2023-03-29T07:04:38.603Z,77.00
2023-03-29T07:07:14.090Z,76.70
2023-03-29T07:09:47.354Z,76.30
2023-03-29T07:12:21.347Z,76.90
2023-03-29T07:14:52.472Z,78.30
2023-03-29T07:17:23.149Z,76.90
2023-03-29T07:19:55.050Z,79.20
2023-03-29T07:22:26.054Z,76.10
2023-03-29T07:24:56.748Z,77.10
2023-03-29T07:27:29.264Z,77.10
2023-03-29T07:30:00.741Z,79.20
2023-03-29T07:32:35.136Z,78.50
2023-03-29T07:35:10.018Z,75.50
2023-03-29T07:37:42.174Z,76.00
2023-03-29T07:40:19.205Z,75.30
2023-03-29T07:42:51.785Z,78.10
2023-03-29T07:45:26.549Z,78.90
2023-03-29T07:48:06.107Z,79.30
2023-03-29T07:50:41.707Z,78.20
2023-03-29T07:53:15.920Z,79.00
2023-03-29T07:55:51.305Z,79.10
2023-03-29T07:58:25.373Z,76.90
2023-03-29T08:00:56.315Z,77.70
2023-03-29T08:03:27.236Z,80.10
2023-03-29T08:05:59.164Z,77.90
2023-03-29T08:08:32.901Z,78.00
2023-03-29T08:11:03.880Z,80.50
2023-03-29T08:13:36.861Z,78.80
2023-03-29T08:16:09.756Z,80.40
2023-03-29T08:18:43.482Z,79.20
2023-03-29T08:21:20.195Z,78.30
2023-03-29T08:23:56.384Z,78.00
2023-03-29T08:26:41.796Z,80.60
2023-03-29T08:29:16.644Z,79.70
2023-03-29T08:31:54.443Z,80.20
2023-03-29T08:34:28.301Z,79.80
2023-03-29T08:37:04.987Z,80.00
2023-03-29T08:39:43.640Z,80.20
2023-03-29T08:42:40.989Z,81.40
2023-03-29T08:45:45.349Z,83.10
2023-03-29T08:48:26.612Z,82.90
2023-03-29T08:51:09.362Z,83.00
2023-03-29T08:53:52.632Z,83.30
2023-03-29T08:56:37.569Z,82.80
2023-03-29T08:59:23.024Z,82.70
2023-03-29T09:01:58.149Z,84.00
2023-03-29T09:04:39.410Z,84.00
2023-03-29T09:07:14.065Z,82.50
2023-03-29T09:09:45.845Z,85.10
2023-03-29T09:12:17.898Z,82.40
2023-03-29T09:15:14.800Z,82.70
2023-03-29T09:18:09.589Z,81.00
2023-03-29T09:21:07.101Z,81.40
2023-03-29T09:24:07.029Z,82.70
2023-03-29T09:26:40.895Z,83.20
2023-03-29T09:29:43.983Z,83.50
2023-03-29T09:32:28.741Z,84.90
2023-03-29T09:35:41.268Z,83.90
2023-03-29T09:38:17.692Z,82.90
2023-03-29T09:40:54.592Z,85.10
2023-03-29T09:43:41.642Z,82.10
2023-03-29T09:46:28.989Z,83.60
2023-03-29T09:49:03.182Z,82.50
2023-03-29T09:51:38.355Z,82.60
2023-03-29T09:54:09.201Z,83.90
2023-03-29T09:56:40.141Z,83.60
2023-03-29T09:59:35.198Z,83.00
2023-03-29T10:02:15.645Z,81.90
2023-03-29T10:04:50.742Z,81.10
2023-03-29T10:07:28.872Z,81.80
2023-03-29T10:10:00.518Z,82.50
2023-03-29T10:12:40.748Z,83.80
2023-03-29T10:15:29.295Z,83.50
2023-03-29T10:18:08.900Z,83.30
2023-03-29T10:20:43.257Z,82.80
2023-03-29T10:23:20.763Z,82.30
2023-03-29T10:25:51.273Z,82.30
2023-03-29T10:28:24.847Z,84.10
2023-03-29T10:31:04.122Z,84.20
2023-03-29T10:33:41.114Z,82.40
2023-03-29T10:36:14.263Z,83.10
2023-03-29T10:38:53.170Z,84.30
2023-03-29T10:41:25.805Z,82.70
2023-03-29T10:43:59.257Z,81.30
2023-03-29T10:46:59.183Z,82.50
2023-03-29T10:49:31.618Z,81.50
2023-03-29T10:52:04.668Z,83.00
2023-03-29T10:54:35.481Z,81.50
2023-03-29T10:57:49.950Z,83.30
2023-03-29T11:00:56.292Z,83.90
2023-03-29T11:03:55.367Z,82.00
2023-03-29T11:06:44.460Z,83.30
2023-03-29T11:09:40.101Z,83.80
2023-03-29T11:12:56.064Z,85.20
2023-03-29T11:15:39.345Z,84.60
2023-03-29T11:18:32.023Z,84.70
2023-03-29T11:28:24.243Z,83.60
2023-03-29T11:31:06.910Z,83.70
2023-03-29T11:33:46.099Z,83.30
2023-03-29T11:36:28.097Z,83.50
2023-03-29T11:42:01.506Z,82.80
2023-03-29T11:44:38.202Z,83.00
2023-03-29T11:47:28.348Z,82.20
2023-03-29T11:53:19.910Z,81.20
2023-03-29T11:55:55.180Z,81.00
2023-03-29T11:58:38.755Z,81.70
2023-03-29T12:04:46.461Z,82.80
2023-03-29T12:10:29.048Z,82.90
2023-03-29T12:13:21.451Z,85.10
2023-03-29T12:16:09.634Z,86.20
2023-03-29T12:18:57.304Z,85.80
2023-03-29T12:21:39.169Z,87.30
2023-03-29T12:24:16.034Z,87.50
2023-03-29T12:27:22.539Z,88.00
2023-03-29T12:30:32.577Z,89.30
2023-03-29T12:33:59.089Z,89.00
2023-03-29T12:36:49.467Z,88.80
2023-03-29T12:39:24.602Z,88.70
2023-03-29T12:42:00.709Z,88.20
2023-03-29T12:44:34.856Z,87.10
2023-03-29T12:47:06.626Z,86.00
2023-03-29T12:49:41.871Z,85.20
2023-03-29T12:52:26.342Z,84.30
2023-03-29T12:55:09.239Z,83.50
2023-03-29T12:58:07.792Z,83.50
2023-03-29T13:00:40.286Z,82.90
2023-03-29T13:03:48.374Z,83.10
2023-03-29T13:06:38.123Z,83.60
2023-03-29T13:10:07.672Z,84.70
2023-03-29T13:12:48.019Z,85.70
2023-03-29T13:15:21.563Z,84.40
2023-03-29T13:18:16.917Z,85.10
2023-03-29T13:20:57.660Z,85.70
2023-03-29T13:23:45.929Z,85.90
2023-03-29T13:26:29.126Z,84.80
2023-03-29T13:29:36.548Z,84.30
2023-03-29T13:32:51.659Z,84.60
2023-03-29T13:35:37.350Z,84.30
2023-03-29T13:38:22.691Z,83.90
2023-03-29T13:40:57.487Z,85.00
2023-03-29T13:43:55.984Z,85.20
2023-03-29T13:46:45.428Z,86.90
2023-03-29T13:49:29.229Z,86.60
2023-03-29T13:52:42.110Z,87.60
2023-03-29T13:55:30.847Z,86.50
2023-03-29T13:58:36.493Z,85.40
2023-03-29T14:01:28.797Z,83.80
2023-03-29T14:04:08.709Z,84.20
2023-03-29T14:06:46.559Z,85.50
2023-03-29T14:09:20.531Z,85.50
2023-03-29T14:11:52.114Z,85.00
2023-03-29T14:14:28.954Z,85.40
2023-03-29T14:16:59.472Z,86.40
2023-03-29T14:19:44.240Z,87.10
2023-03-29T14:22:22.573Z,88.30
2023-03-29T14:25:03.607Z,88.30
2023-03-29T14:27:40.384Z,87.70
2023-03-29T14:30:44.975Z,87.30
2023-03-29T14:33:30.474Z,88.10
2023-03-29T14:36:07.320Z,87.70
2023-03-29T14:38:40.281Z,87.30
2023-03-29T14:41:11.675Z,86.90
2023-03-29T14:43:43.368Z,88.70
2023-03-29T14:46:17.789Z,89.30
2023-03-29T14:48:50.850Z,88.70
2023-03-29T14:51:23.736Z,89.80
2023-03-29T14:53:55.276Z,89.70
2023-03-29T14:56:27.598Z,90.00
2023-03-29T14:59:00.125Z,90.30
2023-03-29T15:01:32.310Z,89.50
2023-03-29T15:04:11.141Z,90.20
2023-03-29T15:06:44.506Z,89.80
2023-03-29T15:09:23.935Z,90.30
2023-03-29T15:12:03.035Z,90.20
2023-03-29T15:14:43.891Z,90.10
2023-03-29T15:17:50.102Z,90.40
2023-03-29T15:20:30.911Z,90.80
2023-03-29T15:23:29.654Z,90.80
2023-03-29T15:26:28.398Z,90.80
2023-03-29T15:29:15.005Z,90.90
2023-03-29T15:31:58.924Z,90.70
2023-03-29T15:34:37.820Z,90.50
2023-03-29T15:37:10.349Z,90.70
2023-03-29T15:39:47.249Z,91.20
2023-03-29T15:42:19.100Z,91.10
2023-03-29T15:44:49.758Z,91.00
2023-03-29T15:47:20.495Z,90.50
2023-03-29T15:49:52.066Z,91.30
2023-03-29T15:52:22.799Z,90.80
2023-03-29T15:54:54.997Z,91.00
2023-03-29T15:57:32.700Z,91.30
2023-03-29T16:00:19.007Z,90.70
2023-03-29T16:02:54.100Z,91.00
2023-03-29T16:05:27.468Z,90.70
2023-03-29T16:07:58.178Z,91.00
2023-03-29T16:10:28.897Z,91.70
2023-03-29T16:13:01.240Z,91.50
2023-03-29T16:15:35.681Z,91.20
2023-03-29T16:18:08.527Z,91.30
2023-03-29T16:20:41.637Z,91.40
2023-03-29T16:23:15.676Z,91.40
2023-03-29T16:25:51.755Z,91.20
2023-03-29T16:28:22.858Z,91.30
2023-03-29T16:30:54.053Z,91.50
2023-03-29T16:33:26.059Z,91.80
2023-03-29T16:35:56.888Z,91.50
2023-03-29T16:38:33.662Z,91.70
2023-03-29T16:41:04.801Z,92.30
2023-03-29T16:43:35.768Z,92.00
2023-03-29T16:46:11.722Z,92.10
2023-03-29T16:48:47.249Z,92.00
2023-03-29T16:51:17.973Z,91.60
2023-03-29T16:53:53.478Z,91.70
2023-03-29T16:56:26.055Z,91.60
2023-03-29T16:58:56.980Z,91.80
2023-03-29T17:01:29.944Z,91.70
2023-03-29T17:04:00.743Z,91.70
2023-03-29T17:06:33.922Z,91.90
2023-03-29T17:09:05.466Z,91.70
2023-03-29T17:11:36.719Z,91.50
2023-03-29T17:14:08.031Z,91.80
2023-03-29T17:16:38.916Z,92.00
2023-03-29T17:19:09.954Z,91.70
2023-03-29T17:21:40.730Z,92.10
2023-03-29T17:24:12.821Z,91.70
2023-03-29T17:26:45.988Z,91.90
2023-03-29T17:29:17.054Z,91.60
2023-03-29T17:31:50.559Z,91.60
2023-03-29T17:34:22.397Z,91.70
2023-03-29T17:36:56.565Z,91.80
2023-03-29T17:39:29.177Z,92.00
2023-03-29T17:41:59.969Z,91.90
2023-03-29T17:44:30.728Z,92.20
2023-03-29T17:47:02.091Z,92.50
2023-03-29T17:49:34.817Z,92.10
2023-03-29T17:52:05.547Z,92.50
2023-03-29T17:54:35.778Z,93.10
2023-03-29T17:57:06.505Z,93.20
2023-03-29T17:59:39.020Z,93.20
2023-03-29T18:02:20.529Z,93.40
2023-03-29T18:04:52.964Z,93.10
2023-03-29T18:07:23.652Z,92.70
2023-03-29T18:09:55.249Z,92.50
2023-03-29T18:12:28.816Z,92.70
2023-03-29T18:14:59.605Z,92.60
2023-03-29T18:17:31.716Z,92.40
2023-03-29T18:20:02.734Z,92.90
2023-03-29T18:22:37.289Z,93.40
2023-03-29T18:25:09.497Z,93.00
2023-03-29T18:27:41.971Z,92.80
2023-03-29T18:30:14.238Z,92.50
2023-03-29T18:32:45.224Z,92.50
2023-03-29T18:35:16.023Z,92.60
2023-03-29T18:37:48.427Z,92.40
2023-03-29T18:40:24.284Z,92.20
2023-03-29T18:42:56.550Z,92.20
2023-03-29T18:45:27.622Z,92.20
2023-03-29T18:47:58.649Z,91.90
2023-03-29T18:50:30.879Z,91.90
2023-03-29T18:53:02.789Z,92.50
2023-03-29T18:55:33.888Z,92.70
2023-03-29T18:58:06.381Z,92.40
2023-03-29T19:00:37.056Z,92.20
2023-03-29T19:03:08.535Z,92.90
2023-03-29T19:05:42.851Z,93.40
2023-03-29T19:08:16.940Z,93.00
2023-03-29T19:10:47.609Z,93.20
2023-03-29T19:13:22.882Z,93.30
2023-03-29T19:15:54.807Z,93.00
2023-03-29T19:18:25.787Z,93.70
2023-03-29T19:20:56.788Z,93.20
2023-03-29T19:23:30.230Z,93.40
2023-03-29T19:26:04.690Z,92.80
2023-03-29T19:28:36.685Z,93.20
2023-03-29T19:31:09.841Z,93.70
2023-03-29T19:33:41.161Z,93.80
2023-03-29T19:36:12.177Z,94.00
2023-03-29T19:38:42.901Z,93.50
2023-03-29T19:41:13.610Z,93.30
2023-03-29T19:43:47.901Z,92.90
2023-03-29T19:46:24.606Z,93.10
2023-03-29T19:48:58.889Z,93.30
2023-03-29T19:51:30.695Z,92.90
2023-03-29T19:54:03.813Z,93.10
2023-03-29T19:56:39.578Z,93.40
2023-03-29T19:59:27.830Z,93.10
2023-03-29T20:02:12.302Z,93.10
2023-03-29T20:04:43.166Z,92.90
2023-03-29T20:07:18.170Z,93.40
2023-03-29T20:09:50.509Z,94.00
2023-03-29T20:12:24.008Z,94.10
2023-03-29T20:15:00.272Z,93.60
2023-03-29T20:17:30.704Z,93.50
2023-03-29T20:20:03.054Z,93.70
2023-03-29T20:22:34.858Z,93.60
2023-03-29T20:25:05.895Z,93.40
2023-03-29T20:27:37.456Z,93.70
2023-03-29T20:30:08.658Z,93.90
2023-03-29T20:32:39.672Z,93.80
2023-03-29T20:35:13.247Z,94.50
2023-03-29T20:37:43.966Z,93.90
2023-03-29T20:40:14.951Z,93.80
2023-03-29T20:42:48.304Z,94.20
2023-03-29T20:45:21.689Z,94.00
2023-03-29T20:47:58.988Z,94.30
2023-03-29T20:50:29.901Z,93.90
2023-03-29T20:53:05.226Z,94.60
2023-03-29T20:55:41.191Z,94.20
2023-03-29T20:58:12.302Z,95.00
2023-03-29T21:00:42.990Z,94.50
2023-03-29T21:03:14.309Z,95.60
2023-03-29T21:05:47.695Z,94.90
2023-03-29T21:11:03.137Z,95.10
2023-03-29T21:13:37.375Z,94.90
2023-03-29T21:16:08.659Z,94.90
2023-03-29T21:18:40.426Z,94.90
2023-03-29T21:21:12.494Z,94.40
2023-03-29T21:23:42.841Z,94.10
2023-03-29T21:26:13.497Z,94.30
2023-03-29T21:28:46.654Z,94.10
2023-03-29T21:31:21.032Z,94.20
2023-03-29T21:33:59.195Z,94.10
2023-03-29T21:36:36.009Z,94.60
2023-03-29T21:39:06.430Z,93.90
2023-03-29T21:41:38.129Z,93.90
2023-03-29T21:44:08.881Z,93.50
2023-03-29T21:46:39.586Z,93.40
2023-03-29T21:49:10.147Z,93.40
2023-03-29T21:51:40.466Z,93.90
2023-03-29T21:54:11.566Z,94.40
2023-03-29T21:56:42.120Z,93.40
2023-03-29T21:59:13.146Z,93.10
2023-03-29T22:01:43.707Z,92.90
2023-03-29T22:04:22.572Z,93.00
2023-03-29T22:06:59.794Z,92.80
2023-03-29T22:09:30.521Z,92.10
2023-03-29T22:12:02.139Z,92.60
2023-03-29T22:14:36.537Z,92.90
2023-03-29T22:17:08.926Z,92.70
2023-03-29T22:19:43.405Z,92.50
2023-03-29T22:22:16.261Z,92.00
2023-03-29T22:24:48.095Z,92.20
2023-03-29T22:27:18.305Z,91.90
2023-03-29T22:29:48.698Z,91.20
2023-03-29T22:32:19.359Z,91.00
2023-03-29T22:34:50.043Z,90.90
2023-03-29T22:37:20.670Z,91.00
2023-03-29T22:39:52.066Z,90.30
2023-03-29T22:42:22.425Z,90.40
2023-03-29T22:44:52.813Z,90.30
2023-03-29T22:47:23.066Z,90.00
2023-03-29T22:49:53.391Z,89.50
2023-03-29T22:52:23.646Z,89.90
2023-03-29T22:54:53.904Z,89.90
2023-03-29T22:57:24.228Z,89.60
2023-03-29T22:59:55.040Z,88.70
2023-03-29T23:02:26.540Z,89.60
2023-03-29T23:04:58.368Z,88.70
2023-03-29T23:07:30.322Z,89.60
2023-03-29T23:10:01.279Z,89.70
2023-03-29T23:12:33.193Z,89.50
2023-03-29T23:15:04.135Z,87.70
2023-03-29T23:17:35.441Z,87.90
2023-03-29T23:20:12.886Z,87.00
2023-03-29T23:22:43.576Z,87.70
2023-03-29T23:25:14.972Z,86.50
2023-03-29T23:27:45.689Z,86.60
2023-03-29T23:30:16.761Z,85.70
2023-03-29T23:32:48.526Z,85.20
2023-03-29T23:35:20.943Z,85.70
2023-03-29T23:37:51.291Z,83.20
2023-03-29T23:40:22.201Z,82.40
2023-03-29T23:42:52.677Z,82.40
2023-03-29T23:45:23.456Z,82.00
2023-03-29T23:47:54.513Z,81.60
2023-03-29T23:50:25.423Z,80.50
2023-03-29T23:52:56.017Z,80.70
2023-03-29T23:55:26.349Z,80.70
2023-03-29T23:57:57.078Z,80.60
